Ocean Phoenix — KCAK — position and weather

sailwx.info

Track history (hours):
 
Tides and Currents Weather Stations Pressure Air Temp Water Temp Dewpoint Dewpoint Depression Visibility Wind Speed Wind Dir Waves Ship Positions

Ocean Phoenix

Owner: PHOENIX PROCESSOR LTD. PARTNERSHIP, SEATTLE, WA. More information available from US FCC via Universal Licensing System and Coast Guard Vessel Documentation Center.

Last reported at 2016-May-24 00:29 UTC. Time now 2016-May-24 07:49 UTC.
Position N 47°38' W 122°23'.

Length 206 m; draft 8.3 m.

Type: Cargo ship. MMSI: 366588000.

Date/timePositionNaut miles runAvg speedWind from/ knotsBaromVisibWave heightAir tempDewpointWater temp
2016-May-24 00:29N 47°38' W 122°23'0 0.0
2016-May-23 23:32N 47°38' W 122°23'0 0.0
2016-May-23 22:32N 47°38' W 122°23'0 0.0
2016-May-23 21:32N 47°38' W 122°23'0 0.0
2016-May-23 20:31N 47°38' W 122°23'0 0.0
2016-May-23 19:31N 47°38' W 122°23'0 0.0
2016-May-23 14:24N 47°38' W 122°23'0 0.0
2016-May-23 13:32N 47°38' W 122°23'0 0.0
2016-May-23 12:32N 47°38' W 122°23'0 0.0
2016-May-23 11:32N 47°38' W 122°23'0 0.0
2016-May-23 10:33N 47°38' W 122°23'0 0.0
2016-May-23 09:33N 47°38' W 122°23'0 0.0
2016-May-23 08:32N 47°38' W 122°23'0 0.0
2016-May-23 07:32N 47°38' W 122°23'0 0.0
2016-May-23 06:32N 47°38' W 122°23'0 0.0
2016-May-23 05:33N 47°38' W 122°23'0 0.0
2016-May-23 04:32N 47°38' W 122°23'1 0.8
2016-May-23 03:33N 47°37' W 122°23'3 3.2
2016-May-23 02:33N 47°35' W 122°27'3 3.3
2016-May-23 01:33N 47°38' W 122°29'3 3.1
2016-May-23 00:33N 47°41' W 122°28'4 4.1
2016-May-22 23:34N 47°46' W 122°27'7 6.9
2016-May-22 22:34N 47°52' W 122°29'8 8.1
2016-May-22 21:33N 47°59' W 122°36'11 7.8
2016-May-22 20:10N 48°09' W 122°43'5 8.2
2016-May-22 19:32N 48°11' W 122°50'6 5.6
2016-May-22 18:32N 48°13' W 122°58'5 5.4
2016-May-22 17:33N 48°15' W 123°06'6 5.3
2016-May-22 16:31N 48°17' W 123°13'4 4.5
2016-May-22 15:34N 48°18' W 123°19'5 5.1
2016-May-22 14:33N 48°22' W 123°25'7 7.3
2016-May-22 13:33N 48°24' W 123°14'7 7.5
2016-May-22 12:33N 48°31' W 123°13'8 7.6
2016-May-22 11:33N 48°39' W 123°15'6 5.6
2016-May-22 10:33N 48°44' W 123°10'6 6.2
2016-May-22 09:33N 48°47' W 123°02'6 5.6
2016-May-22 08:33N 48°52' W 123°05'8 7.8
2016-May-22 07:33N 48°57' W 123°14'8 8.0
2016-May-22 06:34N 49°03' W 123°23'6 6.5
2016-May-22 05:34N 49°09' W 123°23'7 6.6
2016-May-22 04:33N 49°16' W 123°21'6 6.3
2016-May-22 03:33N 49°19' W 123°13'5 4.9
2016-May-22 02:34N 49°18' W 123°06'1 0.8
2016-May-22 01:33N 49°18' W 123°05'0 0.0
2016-May-22 00:33N 49°18' W 123°05'0 0.0
2016-May-21 23:33N 49°18' W 123°05'  
Track history (hours):
 
Tides and Currents Weather Stations Pressure Air Temp Water Temp Dewpoint Dewpoint Depression Visibility Wind Speed Wind Dir Waves Ship Positions

Ocean Phoenix

Owner: PHOENIX PROCESSOR LTD. PARTNERSHIP, SEATTLE, WA. More information available from US FCC via Universal Licensing System and Coast Guard Vessel Documentation Center.

Last reported at 2016-May-24 00:29 UTC. Time now 2016-May-24 07:49 UTC.
Position N 47°38' W 122°23'.

Length 206 m; draft 8.3 m.

Type: Cargo ship. MMSI: 366588000.

Date/timePositionNaut miles runAvg speedWind from/ knotsBaromVisibWave heightAir tempDewpointWater temp
2016-May-24 00:29N 47°38' W 122°23'0 0.0
2016-May-23 23:32N 47°38' W 122°23'0 0.0
2016-May-23 22:32N 47°38' W 122°23'0 0.0
2016-May-23 21:32N 47°38' W 122°23'0 0.0
2016-May-23 20:31N 47°38' W 122°23'0 0.0
2016-May-23 19:31N 47°38' W 122°23'0 0.0
2016-May-23 14:24N 47°38' W 122°23'0 0.0
2016-May-23 13:32N 47°38' W 122°23'0 0.0
2016-May-23 12:32N 47°38' W 122°23'0 0.0
2016-May-23 11:32N 47°38' W 122°23'0 0.0
2016-May-23 10:33N 47°38' W 122°23'0 0.0
2016-May-23 09:33N 47°38' W 122°23'0 0.0
2016-May-23 08:32N 47°38' W 122°23'0 0.0
2016-May-23 07:32N 47°38' W 122°23'0 0.0
2016-May-23 06:32N 47°38' W 122°23'0 0.0
2016-May-23 05:33N 47°38' W 122°23'0 0.0
2016-May-23 04:32N 47°38' W 122°23'1 0.8
2016-May-23 03:33N 47°37' W 122°23'3 3.2
2016-May-23 02:33N 47°35' W 122°27'3 3.3
2016-May-23 01:33N 47°38' W 122°29'3 3.1
2016-May-23 00:33N 47°41' W 122°28'4 4.1
2016-May-22 23:34N 47°46' W 122°27'7 6.9
2016-May-22 22:34N 47°52' W 122°29'8 8.1
2016-May-22 21:33N 47°59' W 122°36'11 7.8
2016-May-22 20:10N 48°09' W 122°43'5 8.2
2016-May-22 19:32N 48°11' W 122°50'6 5.6
2016-May-22 18:32N 48°13' W 122°58'5 5.4
2016-May-22 17:33N 48°15' W 123°06'6 5.3
2016-May-22 16:31N 48°17' W 123°13'4 4.5
2016-May-22 15:34N 48°18' W 123°19'5 5.1
2016-May-22 14:33N 48°22' W 123°25'7 7.3
2016-May-22 13:33N 48°24' W 123°14'7 7.5
2016-May-22 12:33N 48°31' W 123°13'8 7.6
2016-May-22 11:33N 48°39' W 123°15'6 5.6
2016-May-22 10:33N 48°44' W 123°10'6 6.2
2016-May-22 09:33N 48°47' W 123°02'6 5.6
2016-May-22 08:33N 48°52' W 123°05'8 7.8
2016-May-22 07:33N 48°57' W 123°14'8 8.0
2016-May-22 06:34N 49°03' W 123°23'6 6.5
2016-May-22 05:34N 49°09' W 123°23'7 6.6
2016-May-22 04:33N 49°16' W 123°21'6 6.3
2016-May-22 03:33N 49°19' W 123°13'5 4.9
2016-May-22 02:34N 49°18' W 123°06'1 0.8
2016-May-22 01:33N 49°18' W 123°05'0 0.0
2016-May-22 00:33N 49°18' W 123°05'0 0.0
2016-May-21 23:33N 49°18' W 123°05'  

Dump ship's entire track history